Time;durP1;ratioP1;P1;durP2;ratioP2;P2;SDS_P1;SDS_P2;PMS_P1;PMS_P2;Temp;Humidity;BMP_temperature;BMP_pressure;BME280_temperature;BME280_humidity;BME280_pressure;Samples;Min_cycle;Max_cycle;Signal;HPM_P1;HPM_P2
2022/08/02 00:00:54;;;;;;;0.60;0.60;;;;;;;;;;12548753;28;20021;-77
2022/08/02 00:06:56;;;;;;;0.75;0.68;;;;;;;;;;12549524;28;20044;-77
2022/08/02 00:12:58;;;;;;;0.73;0.73;;;;;;;;;;12548870;28;20045;-76
2022/08/02 00:18:59;;;;;;;1.17;0.75;;;;;;;;;;12548015;28;20040;-76
2022/08/02 00:25:01;;;;;;;0.90;0.77;;;;;;;;;;12548706;28;20414;-76
2022/08/02 00:31:03;;;;;;;0.95;0.90;;;;;;;;;;12547397;28;20501;-77
2022/08/02 00:37:04;;;;;;;1.75;1.15;;;;;;;;;;12548629;28;20477;-77
2022/08/02 00:43:10;;;;;;;1.33;1.02;;;;;;;;;;12547160;28;20049;-77
2022/08/02 00:49:13;;;;;;;1.63;1.20;;;;;;;;;;12547434;28;20501;-77
2022/08/02 00:55:15;;;;;;;1.80;1.20;;;;;;;;;;12546181;28;20049;-77
2022/08/02 01:01:17;;;;;;;1.27;0.90;;;;;;;;;;12547104;28;20037;-77
2022/08/02 01:07:20;;;;;;;2.88;0.90;;;;;;;;;;12546772;28;20041;-77
2022/08/02 01:13:21;;;;;;;4.45;0.80;;;;;;;;;;12547720;28;20489;-77
2022/08/02 01:19:41;;;;;;;2.78;0.80;;;;;;;;;;12546422;28;20429;-77
2022/08/02 01:25:43;;;;;;;2.45;0.55;;;;;;;;;;12546040;28;20052;-76
2022/08/02 01:31:54;;;;;;;1.13;0.50;;;;;;;;;;12544460;28;20044;-77
2022/08/02 01:37:58;;;;;;;1.47;0.30;;;;;;;;;;12544439;28;20033;-77
2022/08/02 01:44:01;;;;;;;1.35;0.60;;;;;;;;;;12545526;28;20052;-75
2022/08/02 01:50:05;;;;;;;0.35;0.20;;;;;;;;;;12570915;28;20041;-77
2022/08/02 01:56:08;;;;;;;0.68;0.30;;;;;;;;;;12569880;28;20051;-77
2022/08/02 02:02:10;;;;;;;2.88;0.30;;;;;;;;;;12543606;28;20029;-77
2022/08/02 02:08:13;;;;;;;0.20;0.20;;;;;;;;;;12544485;28;20051;-77
2022/08/02 02:14:16;;;;;;;0.22;0.22;;;;;;;;;;12543858;28;20053;-77
2022/08/02 02:20:19;;;;;;;0.60;0.20;;;;;;;;;;12543427;28;20037;-77
2022/08/02 02:26:21;;;;;;;0.93;0.30;;;;;;;;;;12544193;28;20040;-77
2022/08/02 02:32:24;;;;;;;1.05;0.30;;;;;;;;;;12543722;28;20481;-77
2022/08/02 02:38:28;;;;;;;0.63;0.57;;;;;;;;;;12545429;28;20036;-77
2022/08/02 02:44:31;;;;;;;1.17;0.30;;;;;;;;;;12543658;28;20053;-77
2022/08/02 02:50:32;;;;;;;2.63;0.40;;;;;;;;;;12543304;28;20040;-77
2022/08/02 02:56:35;;;;;;;1.25;0.30;;;;;;;;;;12542210;28;20045;-77
2022/08/02 03:02:41;;;;;;;3.22;0.60;;;;;;;;;;12542855;28;20390;-77
2022/08/02 03:08:43;;;;;;;0.98;0.50;;;;;;;;;;12542774;28;20032;-77
2022/08/02 03:14:45;;;;;;;2.00;0.40;;;;;;;;;;12548312;28;20047;-77
2022/08/02 03:20:47;;;;;;;0.30;0.30;;;;;;;;;;12552003;28;20033;-76
2022/08/02 03:26:59;;;;;;;2.53;0.52;;;;;;;;;;12551538;28;20040;-77
2022/08/02 03:33:01;;;;;;;0.70;0.55;;;;;;;;;;12549558;28;20528;-76
2022/08/02 03:39:02;;;;;;;;;;;;;;;;;;12551381;28;20041;-77
2022/08/02 03:45:04;;;;;;;2.87;0.60;;;;;;;;;;12550750;28;19924;-77
2022/08/02 03:51:06;;;;;;;1.00;0.60;;;;;;;;;;12549235;28;20037;-77
2022/08/02 03:57:08;;;;;;;;;;;;;;;;;;12550993;28;20040;-77
2022/08/02 04:03:09;;;;;;;1.67;0.53;;;;;;;;;;12548877;28;19917;-77
2022/08/02 04:09:11;;;;;;;1.27;0.40;;;;;;;;;;12549819;28;20037;-78
2022/08/02 04:15:15;;;;;;;1.08;0.40;;;;;;;;;;12549796;28;20485;-77
2022/08/02 04:21:28;;;;;;;0.50;0.28;;;;;;;;;;12546607;28;20039;-77
2022/08/02 04:27:31;;;;;;;0.38;0.25;;;;;;;;;;12546143;28;20040;-76
2022/08/02 04:33:34;;;;;;;0.40;0.38;;;;;;;;;;12547522;28;20041;-76
2022/08/02 04:39:35;;;;;;;0.47;0.32;;;;;;;;;;12547148;28;20044;-76
2022/08/02 04:45:37;;;;;;;0.57;0.38;;;;;;;;;;12547592;28;20060;-76
2022/08/02 04:51:40;;;;;;;0.88;0.50;;;;;;;;;;12546204;28;20037;-80
2022/08/02 04:57:54;;;;;;;0.45;0.45;;;;;;;;;;12544887;28;20481;-80
2022/08/02 05:03:55;;;;;;;2.65;0.60;;;;;;;;;;12545272;28;20056;-82
2022/08/02 05:09:57;;;;;;;0.77;0.50;;;;;;;;;;12546315;28;20412;-76
2022/08/02 05:16:01;;;;;;;1.25;0.52;;;;;;;;;;12546603;28;20041;-77
2022/08/02 05:22:03;;;;;;;0.55;0.30;;;;;;;;;;12528443;28;20032;-76
2022/08/02 05:28:05;;;;;;;0.55;0.30;;;;;;;;;;12546429;28;20033;-82
2022/08/02 05:34:07;;;;;;;0.85;0.50;;;;;;;;;;12545624;28;20040;-81
2022/08/02 05:40:09;;;;;;;0.60;0.60;;;;;;;;;;12528245;28;20045;-81
2022/08/02 05:46:10;;;;;;;1.05;0.47;;;;;;;;;;12545037;28;20052;-81
2022/08/02 05:52:12;;;;;;;;;;;;;;;;;;12530643;28;20040;-81
2022/08/02 05:58:14;;;;;;;1.00;0.40;;;;;;;;;;12545194;28;19908;-81
2022/08/02 06:04:24;;;;;;;1.42;0.52;;;;;;;;;;12543413;28;20059;-81
2022/08/02 06:10:26;;;;;;;1.67;0.50;;;;;;;;;;12543744;28;20425;-82
2022/08/02 06:16:29;;;;;;;1.48;0.30;;;;;;;;;;12544193;28;20052;-81
2022/08/02 06:22:31;;;;;;;2.03;0.45;;;;;;;;;;12542788;28;20039;-80
2022/08/02 06:28:35;;;;;;;1.30;0.43;;;;;;;;;;12543803;28;20041;-80
2022/08/02 06:34:38;;;;;;;0.90;0.50;;;;;;;;;;12543294;28;20044;-79
2022/08/02 06:40:46;;;;;;;0.95;0.50;;;;;;;;;;12525795;28;20049;-80
2022/08/02 06:46:47;;;;;;;0.57;0.30;;;;;;;;;;12545988;28;20036;-79
2022/08/02 06:52:49;;;;;;;;;;;;;;;;;;12553510;28;20048;-79
2022/08/02 06:58:51;;;;;;;2.22;0.43;;;;;;;;;;12552977;28;19913;-77
2022/08/02 07:04:54;;;;;;;0.28;0.28;;;;;;;;;;12551504;28;20040;-76
2022/08/02 07:10:57;;;;;;;1.10;0.43;;;;;;;;;;12592553;28;20039;-77
2022/08/02 07:16:59;;;;;;;1.10;0.70;;;;;;;;;;12558825;28;20041;-76
2022/08/02 07:23:00;;;;;;;1.98;0.70;;;;;;;;;;12550787;28;20041;-76
2022/08/02 07:29:02;;;;;;;1.55;0.52;;;;;;;;;;12551713;28;20385;-77
2022/08/02 07:35:04;;;;;;;2.67;0.73;;;;;;;;;;12551378;28;20037;-76
2022/08/02 07:41:06;;;;;;;0.70;0.70;;;;;;;;;;12550004;28;20053;-80
2022/08/02 07:47:08;;;;;;;1.77;1.33;;;;;;;;;;12549644;28;20029;-80
2022/08/02 07:53:09;;;;;;;;;;;;;;;;;;12533886;28;20045;-79
2022/08/02 07:59:11;;;;;;;2.55;1.00;;;;;;;;;;12549452;28;19908;-79
2022/08/02 08:05:13;;;;;;;1.27;0.98;;;;;;;;;;12550453;28;20025;-80
2022/08/02 08:11:14;;;;;;;;;;;;;;;;;;12549165;28;20052;-79
2022/08/02 08:17:16;;;;;;;1.80;0.70;;;;;;;;;;12548651;28;19927;-78
2022/08/02 08:23:18;;;;;;;;;;;;;;;;;;12550114;28;20040;-80
2022/08/02 08:29:20;;;;;;;1.37;0.60;;;;;;;;;;12549378;28;19909;-79
2022/08/02 08:35:21;;;;;;;0.57;0.50;;;;;;;;;;12548543;28;20286;-79
2022/08/02 08:41:23;;;;;;;0.40;0.40;;;;;;;;;;12548748;28;20410;-79
2022/08/02 08:47:25;;;;;;;;;;;;;;;;;;12547957;28;20474;-79
2022/08/02 08:53:28;;;;;;;8.83;1.60;;;;;;;;;;12547187;28;19920;-79
2022/08/02 08:59:30;;;;;;;3.90;0.80;;;;;;;;;;12546072;28;20515;-81
2022/08/02 09:05:34;;;;;;;2.40;0.60;;;;;;;;;;12554695;28;20044;-79
2022/08/02 09:11:36;;;;;;;2.78;0.65;;;;;;;;;;12589615;28;20474;-81
2022/08/02 09:17:49;;;;;;;1.17;0.65;;;;;;;;;;12546063;28;20047;-80
2022/08/02 09:23:52;;;;;;;0.50;0.40;;;;;;;;;;12544524;28;20502;-80
2022/08/02 09:29:54;;;;;;;0.88;0.38;;;;;;;;;;12544627;28;20033;-80
2022/08/02 09:36:04;;;;;;;2.60;2.05;;;;;;;;;;12544674;28;20033;-80
2022/08/02 09:42:09;;;;;;;1.92;1.05;;;;;;;;;;12545042;28;20052;-80
2022/08/02 09:48:11;;;;;;;1.17;0.73;;;;;;;;;;12543577;28;20048;-81
2022/08/02 09:54:16;;;;;;;1.27;0.57;;;;;;;;;;12546859;28;20059;-81
2022/08/02 10:00:19;;;;;;;0.52;0.52;;;;;;;;;;12543613;28;20033;-81
2022/08/02 10:06:21;;;;;;;0.98;0.60;;;;;;;;;;12544513;28;20033;-81
2022/08/02 10:12:22;;;;;;;1.00;0.50;;;;;;;;;;12545023;28;20044;-82
2022/08/02 10:18:24;;;;;;;1.42;0.80;;;;;;;;;;12544244;28;20044;-80
2022/08/02 10:24:27;;;;;;;0.50;0.40;;;;;;;;;;12542321;28;20036;-80
2022/08/02 10:30:29;;;;;;;1.83;0.70;;;;;;;;;;12543681;28;20041;-81
2022/08/02 10:36:33;;;;;;;0.80;0.52;;;;;;;;;;12542435;28;20037;-81
2022/08/02 10:42:48;;;;;;;0.40;0.40;;;;;;;;;;12543598;28;20052;-80
2022/08/02 10:49:08;;;;;;;0.20;0.20;;;;;;;;;;12542129;28;20040;-81
2022/08/02 10:55:10;;;;;;;0.85;0.15;;;;;;;;;;12543284;28;20064;-81
2022/08/02 11:01:31;;;;;;;0.63;0.30;;;;;;;;;;12545037;28;20041;-78
2022/08/02 11:07:33;;;;;;;;;;;;;;;;;;12525783;28;20036;-77
2022/08/02 11:13:53;;;;;;;1.80;0.30;;;;;;;;;;12543316;28;19921;-76
2022/08/02 11:20:14;;;;;;;0.30;0.10;;;;;;;;;;12545326;28;20036;-77
2022/08/02 11:26:28;;;;;;;0.88;0.30;;;;;;;;;;12542606;28;20091;-81
2022/08/02 11:32:30;;;;;;;0.52;0.28;;;;;;;;;;12545829;28;20052;-81
2022/08/02 11:38:32;;;;;;;0.95;0.20;;;;;;;;;;12558905;28;20040;-81
2022/08/02 11:44:45;;;;;;;0.70;0.40;;;;;;;;;;12561776;28;20049;-81
2022/08/02 11:50:47;;;;;;;0.90;0.28;;;;;;;;;;12553468;28;20033;-75
2022/08/02 11:56:48;;;;;;;0.98;0.30;;;;;;;;;;12555081;28;20044;-76
2022/08/02 12:02:51;;;;;;;0.20;0.13;;;;;;;;;;12551776;28;20033;-79
2022/08/02 12:08:58;;;;;;;0.70;0.52;;;;;;;;;;12552820;28;20037;-76
2022/08/02 12:14:59;;;;;;;1.77;0.57;;;;;;;;;;12555731;28;20056;-79
2022/08/02 12:21:02;;;;;;;9.48;0.98;;;;;;;;;;12555719;28;20024;-77
2022/08/02 12:27:03;;;;;;;0.47;0.35;;;;;;;;;;12551076;28;20039;-79
2022/08/02 12:33:08;;;;;;;0.60;0.60;;;;;;;;;;12549014;28;20049;-80
2022/08/02 12:39:12;;;;;;;0.82;0.35;;;;;;;;;;12549636;28;20044;-80
2022/08/02 12:45:14;;;;;;;0.43;0.25;;;;;;;;;;12553619;28;20056;-77
2022/08/02 12:51:23;;;;;;;2.00;0.30;;;;;;;;;;12551730;28;20036;-80
2022/08/02 12:57:25;;;;;;;0.45;0.40;;;;;;;;;;12551699;28;20045;-80
2022/08/02 13:03:27;;;;;;;1.45;0.30;;;;;;;;;;12547372;28;20029;-80
2022/08/02 13:09:34;;;;;;;0.50;0.40;;;;;;;;;;12549919;28;20499;-77
2022/08/02 13:15:37;;;;;;;0.52;0.40;;;;;;;;;;12530580;28;20142;-80
2022/08/02 13:21:38;;;;;;;0.32;0.30;;;;;;;;;;12551356;28;20040;-77
2022/08/02 13:27:40;;;;;;;0.30;0.30;;;;;;;;;;12545325;28;20036;-79
2022/08/02 13:33:42;;;;;;;0.25;0.25;;;;;;;;;;12550724;28;20041;-80
2022/08/02 13:39:44;;;;;;;1.10;0.30;;;;;;;;;;12547981;28;20041;-77
2022/08/02 13:45:45;;;;;;;0.40;0.20;;;;;;;;;;12547676;28;20057;-76
2022/08/02 13:51:47;;;;;;;0.60;0.25;;;;;;;;;;12547064;28;20033;-76
2022/08/02 13:57:49;;;;;;;1.95;0.30;;;;;;;;;;12547624;28;20033;-79
2022/08/02 14:03:53;;;;;;;0.60;0.38;;;;;;;;;;12550116;28;20037;-80
2022/08/02 14:09:54;;;;;;;1.60;0.40;;;;;;;;;;12546800;28;20037;-77
2022/08/02 14:15:58;;;;;;;0.20;0.20;;;;;;;;;;12536392;28;20504;-77
2022/08/02 14:22:00;;;;;;;0.17;0.17;;;;;;;;;;12551163;28;20370;-77
2022/08/02 14:28:02;;;;;;;0.80;0.40;;;;;;;;;;12547407;28;20036;-77
2022/08/02 14:34:04;;;;;;;0.40;0.28;;;;;;;;;;12546740;28;20041;-77
2022/08/02 14:40:06;;;;;;;0.57;0.43;;;;;;;;;;12550897;28;20063;-78
2022/08/02 14:46:08;;;;;;;0.30;0.30;;;;;;;;;;12547486;28;20512;-77
2022/08/02 14:52:11;;;;;;;1.10;0.50;;;;;;;;;;12545692;28;20404;-80
2022/08/02 14:58:13;;;;;;;0.95;0.30;;;;;;;;;;12547511;28;20040;-80
2022/08/02 15:04:15;;;;;;;1.75;0.30;;;;;;;;;;12543063;28;20034;-76
2022/08/02 15:10:17;;;;;;;0.50;0.30;;;;;;;;;;12549521;28;20052;-79
2022/08/02 15:16:18;;;;;;;0.40;0.15;;;;;;;;;;12555506;28;20059;-76
2022/08/02 15:22:20;;;;;;;0.25;0.25;;;;;;;;;;12554512;28;20040;-80
2022/08/02 15:28:23;;;;;;;0.30;0.20;;;;;;;;;;12551312;28;20033;-77
2022/08/02 15:34:25;;;;;;;0.40;0.20;;;;;;;;;;12552752;28;20045;-79
2022/08/02 15:40:27;;;;;;;0.20;0.20;;;;;;;;;;12552323;28;20044;-80
2022/08/02 15:46:29;;;;;;;0.25;0.25;;;;;;;;;;12552620;28;20032;-79
2022/08/02 15:52:30;;;;;;;0.40;0.30;;;;;;;;;;12550585;28;20397;-77
2022/08/02 15:58:32;;;;;;;0.30;0.20;;;;;;;;;;12550406;28;20036;-81
2022/08/02 16:04:34;;;;;;;0.20;0.20;;;;;;;;;;12535725;28;20037;-81
2022/08/02 16:10:36;;;;;;;0.20;0.20;;;;;;;;;;12549677;28;20041;-77
2022/08/02 16:16:39;;;;;;;0.47;0.20;;;;;;;;;;12549295;28;20041;-77
2022/08/02 16:22:40;;;;;;;0.10;0.10;;;;;;;;;;12546222;28;20035;-75
2022/08/02 16:28:42;;;;;;;0.20;0.20;;;;;;;;;;12551467;28;20033;-78
2022/08/02 16:34:44;;;;;;;0.25;0.25;;;;;;;;;;12551704;28;20040;-80
2022/08/02 16:40:46;;;;;;;0.30;0.10;;;;;;;;;;12549035;28;20045;-77
2022/08/02 16:46:47;;;;;;;0.28;0.20;;;;;;;;;;12550375;28;20521;-77
2022/08/02 16:52:49;;;;;;;0.10;0.10;;;;;;;;;;12551044;28;20063;-78
2022/08/02 16:58:51;;;;;;;0.22;0.20;;;;;;;;;;12549324;28;20051;-81
2022/08/02 17:04:52;;;;;;;0.20;0.20;;;;;;;;;;12552028;28;20029;-77
2022/08/02 17:10:54;;;;;;;0.25;0.20;;;;;;;;;;12551853;28;20048;-77
2022/08/02 17:16:56;;;;;;;0.20;0.20;;;;;;;;;;12548731;28;20049;-77
2022/08/02 17:22:58;;;;;;;0.30;0.30;;;;;;;;;;12546620;28;20036;-81
2022/08/02 17:28:59;;;;;;;0.30;0.30;;;;;;;;;;12546985;28;20037;-80
2022/08/02 17:35:01;;;;;;;0.20;0.20;;;;;;;;;;12551401;28;20049;-81
2022/08/02 17:41:03;;;;;;;0.50;0.30;;;;;;;;;;12545500;28;20052;-81
2022/08/02 17:47:08;;;;;;;0.30;0.30;;;;;;;;;;12546276;28;20025;-80
2022/08/02 17:53:10;;;;;;;0.30;0.20;;;;;;;;;;12550156;28;20041;-77
2022/08/02 17:59:15;;;;;;;0.20;0.20;;;;;;;;;;12544659;28;20393;-77
2022/08/02 18:05:17;;;;;;;0.20;0.20;;;;;;;;;;12543997;28;20032;-76
2022/08/02 18:11:18;;;;;;;0.10;0.10;;;;;;;;;;12547654;28;20037;-76
2022/08/02 18:17:20;;;;;;;0.20;0.20;;;;;;;;;;12550005;28;20036;-81
2022/08/02 18:23:22;;;;;;;1.45;0.30;;;;;;;;;;12546411;28;20029;-80
2022/08/02 18:29:24;;;;;;;0.30;0.30;;;;;;;;;;12527374;28;20388;-81
2022/08/02 18:35:26;;;;;;;0.40;0.30;;;;;;;;;;12543049;28;20048;-80
2022/08/02 18:41:27;;;;;;;0.30;0.20;;;;;;;;;;12543931;28;20064;-80
2022/08/02 18:47:29;;;;;;;0.20;0.20;;;;;;;;;;12551702;28;20037;-76
2022/08/02 18:53:31;;;;;;;0.30;0.30;;;;;;;;;;12553972;28;20048;-77
2022/08/02 18:59:33;;;;;;;0.22;0.20;;;;;;;;;;12555763;28;20256;-76
2022/08/02 19:05:34;;;;;;;0.32;0.20;;;;;;;;;;12557342;28;20037;-80
2022/08/02 19:11:36;;;;;;;0.88;0.20;;;;;;;;;;12536807;28;20044;-76
2022/08/02 19:17:38;;;;;;;0.20;0.20;;;;;;;;;;12551551;28;20049;-80
2022/08/02 19:23:39;;;;;;;0.40;0.32;;;;;;;;;;12534456;28;20388;-75
2022/08/02 19:29:41;;;;;;;0.22;0.22;;;;;;;;;;12553372;28;20033;-77
2022/08/02 19:35:43;;;;;;;0.52;0.30;;;;;;;;;;12550454;28;20095;-81
2022/08/02 19:41:45;;;;;;;1.10;0.63;;;;;;;;;;12548903;28;20057;-77
2022/08/02 19:47:47;;;;;;;1.48;0.40;;;;;;;;;;12549994;28;20044;-80
2022/08/02 19:53:48;;;;;;;0.95;0.70;;;;;;;;;;12548147;28;20045;-77
2022/08/02 19:59:50;;;;;;;1.30;0.75;;;;;;;;;;12549601;28;20044;-77
2022/08/02 20:05:52;;;;;;;1.15;1.10;;;;;;;;;;12533769;28;20028;-81
2022/08/02 20:11:54;;;;;;;0.70;0.70;;;;;;;;;;12552062;28;20029;-81
2022/08/02 20:17:55;;;;;;;1.90;0.90;;;;;;;;;;12555276;28;20041;-81
2022/08/02 20:23:57;;;;;;;0.95;0.63;;;;;;;;;;12553436;28;20029;-77
2022/08/02 20:29:59;;;;;;;0.95;0.70;;;;;;;;;;12552972;28;20035;-80
2022/08/02 20:36:01;;;;;;;1.52;0.93;;;;;;;;;;12552002;28;20408;-80
2022/08/02 20:42:03;;;;;;;1.60;0.90;;;;;;;;;;12549482;28;20055;-80
2022/08/02 20:48:05;;;;;;;0.65;0.52;;;;;;;;;;12553173;28;20029;-80
2022/08/02 20:54:07;;;;;;;1.23;0.98;;;;;;;;;;12531370;28;20404;-80
2022/08/02 21:00:09;;;;;;;1.25;0.90;;;;;;;;;;12551398;28;20048;-80
2022/08/02 21:06:11;;;;;;;1.50;1.17;;;;;;;;;;12549324;28;20548;-80
2022/08/02 21:12:13;;;;;;;1.25;1.15;;;;;;;;;;12549194;28;20044;-76
2022/08/02 21:18:15;;;;;;;1.20;1.10;;;;;;;;;;12551419;28;20044;-76
2022/08/02 21:24:16;;;;;;;1.10;1.00;;;;;;;;;;12546384;28;20366;-76
2022/08/02 21:30:18;;;;;;;1.58;0.82;;;;;;;;;;12545682;28;20033;-75
2022/08/02 21:36:20;;;;;;;1.08;0.75;;;;;;;;;;12545961;28;20067;-76
2022/08/02 21:42:22;;;;;;;1.48;1.00;;;;;;;;;;12548936;28;20409;-77
2022/08/02 21:48:23;;;;;;;0.80;0.80;;;;;;;;;;12548740;28;20032;-78
2022/08/02 21:54:25;;;;;;;1.63;0.93;;;;;;;;;;12552939;28;20408;-81
2022/08/02 22:00:28;;;;;;;0.93;0.82;;;;;;;;;;12543967;28;20029;-76
2022/08/02 22:06:30;;;;;;;0.85;0.80;;;;;;;;;;12543231;28;20033;-76
2022/08/02 22:12:31;;;;;;;1.15;0.77;;;;;;;;;;12541182;28;20041;-80
2022/08/02 22:18:33;;;;;;;1.30;0.70;;;;;;;;;;12549650;28;20040;-80
2022/08/02 22:24:35;;;;;;;2.08;0.90;;;;;;;;;;12540909;28;20033;-76
2022/08/02 22:30:38;;;;;;;0.80;0.60;;;;;;;;;;12542335;28;20515;-80
2022/08/02 22:36:40;;;;;;;0.70;0.70;;;;;;;;;;12542350;28;20080;-80
2022/08/02 22:42:42;;;;;;;0.50;0.50;;;;;;;;;;12542885;28;20053;-76
2022/08/02 22:48:44;;;;;;;1.55;0.75;;;;;;;;;;12544379;28;20041;-80
2022/08/02 22:54:46;;;;;;;0.65;0.40;;;;;;;;;;12541809;28;20543;-76
2022/08/02 23:00:48;;;;;;;0.68;0.68;;;;;;;;;;12541307;28;20033;-80
2022/08/02 23:06:49;;;;;;;0.95;0.47;;;;;;;;;;12541401;28;20485;-80
2022/08/02 23:12:55;;;;;;;0.60;0.60;;;;;;;;;;12549902;28;20052;-80
2022/08/02 23:25:19;;;;;;;0.60;0.60;;;;;;;;;;12544499;28;20037;-77
2022/08/02 23:31:27;;;;;;;0.47;0.40;;;;;;;;;;12549320;28;20029;-80
2022/08/02 23:37:29;;;;;;;0.55;0.55;;;;;;;;;;12551609;28;20064;-79
2022/08/02 23:43:30;;;;;;;0.85;0.50;;;;;;;;;;12553893;28;20115;-76
2022/08/02 23:49:32;;;;;;;0.50;0.40;;;;;;;;;;12551152;28;20037;-80
2022/08/02 23:55:35;;;;;;;0.60;0.30;;;;;;;;;;12552858;28;20049;-80
